createdAt,value
2019-05-11T00:01:56.607Z,84.30
2019-05-11T00:04:26.504Z,84.50
2019-05-11T00:06:56.451Z,84.70
2019-05-11T00:09:26.331Z,84.30
2019-05-11T00:11:56.268Z,84.50
2019-05-11T00:14:26.255Z,84.30
2019-05-11T00:16:57.585Z,84.20
2019-05-11T00:19:27.224Z,84.10
2019-05-11T00:21:56.933Z,84.60
2019-05-11T00:24:29.410Z,84.20
2019-05-11T00:26:58.205Z,84.40
2019-05-11T00:29:28.130Z,84.80
2019-05-11T00:31:58.083Z,84.70
2019-05-11T00:34:27.938Z,84.40
2019-05-11T00:36:57.847Z,84.70
2019-05-11T00:39:27.785Z,84.30
2019-05-11T00:41:57.683Z,84.00
2019-05-11T00:44:27.598Z,84.50
2019-05-11T00:46:57.488Z,85.30
2019-05-11T00:49:27.033Z,84.40
2019-05-11T00:51:56.935Z,83.90
2019-05-11T00:54:26.464Z,84.20
2019-05-11T00:56:56.352Z,84.60
2019-05-11T00:59:25.891Z,84.60
2019-05-11T01:01:55.765Z,85.00
2019-05-11T01:04:25.319Z,85.20
2019-05-11T01:06:55.212Z,84.80
2019-05-11T01:09:25.198Z,84.80
2019-05-11T01:11:55.010Z,84.90
2019-05-11T01:14:24.571Z,85.00
2019-05-11T01:16:54.445Z,85.20
2019-05-11T01:19:25.175Z,85.20
2019-05-11T01:21:54.725Z,85.50
2019-05-11T01:24:24.612Z,85.30
2019-05-11T01:26:54.140Z,85.30
2019-05-11T01:29:24.128Z,85.20
2019-05-11T01:31:54.023Z,85.60
2019-05-11T01:34:23.972Z,85.80
2019-05-11T01:36:53.812Z,85.70
2019-05-11T01:39:23.805Z,85.60
2019-05-11T01:41:53.709Z,85.30
2019-05-11T01:44:23.647Z,85.70
2019-05-11T01:46:53.510Z,85.80
2019-05-11T01:49:23.512Z,86.00
2019-05-11T01:51:53.512Z,85.60
2019-05-11T01:54:23.585Z,86.10
2019-05-11T01:56:54.449Z,85.30
2019-05-11T01:59:23.544Z,86.30
2019-05-11T02:01:53.034Z,91.00
2019-05-11T02:04:22.940Z,84.90
2019-05-11T02:06:52.850Z,85.40
2019-05-11T02:09:22.770Z,85.60
2019-05-11T02:11:52.713Z,85.80
2019-05-11T02:14:22.577Z,85.70
2019-05-11T02:16:52.476Z,85.70
2019-05-11T02:19:22.426Z,85.50
2019-05-11T02:21:52.372Z,86.10
2019-05-11T02:24:22.287Z,85.90
2019-05-11T02:26:52.132Z,86.20
2019-05-11T02:29:22.094Z,86.00
2019-05-11T02:31:52.031Z,85.90
2019-05-11T02:34:21.899Z,86.60
2019-05-11T02:36:51.801Z,86.60
2019-05-11T02:39:22.525Z,85.80
2019-05-11T02:41:52.066Z,86.00
2019-05-11T02:44:21.945Z,86.10
2019-05-11T02:46:51.509Z,86.50
2019-05-11T02:49:21.374Z,86.20
2019-05-11T02:51:51.489Z,86.20
2019-05-11T02:54:21.579Z,86.10
2019-05-11T02:56:51.199Z,86.20
2019-05-11T02:59:21.068Z,86.40
2019-05-11T03:02:09.985Z,86.50
2019-05-11T03:04:40.517Z,86.80
2019-05-11T03:07:10.054Z,86.80
2019-05-11T03:09:40.001Z,87.20
2019-05-11T03:12:09.847Z,86.70
2019-05-11T03:14:39.393Z,86.90
2019-05-11T03:17:16.597Z,86.60
2019-05-11T03:19:46.150Z,86.50
2019-05-11T03:22:15.867Z,87.40
2019-05-11T03:24:45.665Z,87.00
2019-05-11T03:27:15.588Z,86.60
2019-05-11T03:29:45.509Z,86.60
2019-05-11T03:32:15.441Z,86.90
2019-05-11T03:34:46.149Z,86.50
2019-05-11T03:37:16.084Z,86.80
2019-05-11T03:39:45.980Z,86.60
2019-05-11T03:42:15.898Z,86.50
2019-05-11T03:44:45.790Z,86.30
2019-05-11T03:47:15.738Z,86.30
2019-05-11T03:49:45.637Z,86.80
2019-05-11T03:52:15.566Z,86.10
2019-05-11T03:54:45.630Z,86.80
2019-05-11T03:57:15.389Z,86.90
2019-05-11T03:59:45.290Z,86.50
2019-05-11T04:02:15.213Z,86.60
2019-05-11T04:04:45.121Z,86.80
2019-05-11T04:07:15.533Z,86.70
2019-05-11T04:09:45.376Z,86.80
2019-05-11T04:12:33.432Z,86.80
2019-05-11T04:14:46.890Z,86.90
2019-05-11T04:17:16.798Z,87.30
2019-05-11T04:19:46.659Z,87.10
2019-05-11T04:22:16.566Z,87.00
2019-05-11T04:24:46.362Z,87.20
2019-05-11T04:27:19.533Z,87.50
2019-05-11T04:29:47.522Z,87.30
2019-05-11T04:32:17.069Z,87.50
2019-05-11T04:34:46.948Z,87.60
2019-05-11T04:37:16.533Z,87.80
2019-05-11T04:39:46.373Z,87.80
2019-05-11T04:42:15.933Z,88.00
2019-05-11T04:44:45.830Z,88.20
2019-05-11T04:47:15.726Z,88.30
2019-05-11T04:49:45.626Z,88.60
2019-05-11T04:52:15.170Z,88.40
2019-05-11T04:54:45.049Z,88.60
2019-05-11T04:57:14.599Z,88.30
2019-05-11T04:59:44.496Z,88.60
2019-05-11T05:02:14.388Z,88.20
2019-05-11T05:04:44.075Z,88.10
2019-05-11T05:07:16.498Z,88.20
2019-05-11T05:09:45.400Z,88.70
2019-05-11T05:12:15.720Z,88.20
2019-05-11T05:14:45.609Z,88.60
2019-05-11T05:17:15.497Z,89.10
2019-05-11T05:19:45.059Z,88.50
2019-05-11T05:22:15.027Z,88.80
2019-05-11T05:24:45.078Z,88.20
2019-05-11T05:27:14.862Z,88.90
2019-05-11T05:29:44.776Z,89.00
2019-05-11T05:32:14.697Z,89.10
2019-05-11T05:34:44.708Z,89.10
2019-05-11T05:37:14.517Z,89.70
2019-05-11T05:39:44.436Z,89.60
2019-05-11T05:42:14.353Z,89.70
2019-05-11T05:44:44.304Z,90.00
2019-05-11T05:47:14.165Z,89.90
2019-05-11T05:49:44.100Z,90.00
2019-05-11T05:52:14.003Z,89.60
2019-05-11T05:54:43.924Z,90.20
2019-05-11T05:57:13.821Z,90.20
2019-05-11T05:59:43.752Z,90.30
2019-05-11T06:02:13.654Z,90.20
2019-05-11T06:04:43.633Z,90.40
2019-05-11T06:07:13.480Z,90.30
2019-05-11T06:09:44.265Z,90.50
2019-05-11T06:12:14.129Z,90.70
2019-05-11T06:14:44.053Z,90.70
2019-05-11T06:17:13.958Z,90.50
2019-05-11T06:19:43.889Z,90.50
2019-05-11T06:22:13.796Z,90.60
2019-05-11T06:24:43.795Z,90.70
2019-05-11T06:27:13.628Z,90.40
2019-05-11T06:29:44.573Z,90.50
2019-05-11T06:32:13.474Z,90.70
2019-05-11T06:34:42.965Z,93.10
2019-05-11T06:37:14.857Z,90.90
2019-05-11T06:39:44.845Z,90.90
2019-05-11T06:42:14.756Z,91.00
2019-05-11T06:44:44.850Z,91.10
2019-05-11T06:47:14.572Z,91.00
2019-05-11T06:49:44.112Z,90.90
2019-05-11T06:52:14.156Z,90.70
2019-05-11T06:54:43.932Z,90.90
2019-05-11T06:57:13.832Z,90.80
2019-05-11T06:59:44.831Z,90.90
2019-05-11T07:02:13.645Z,90.80
2019-05-11T07:04:43.238Z,92.60
2019-05-11T07:07:46.521Z,90.70
2019-05-11T07:10:05.696Z,90.80
2019-05-11T07:12:35.420Z,90.80
2019-05-11T07:15:06.339Z,90.70
2019-05-11T07:17:35.229Z,90.80
2019-05-11T07:20:07.111Z,92.40
2019-05-11T07:22:36.970Z,90.50
2019-05-11T07:25:08.001Z,90.50
2019-05-11T07:27:38.052Z,90.60
2019-05-11T07:30:08.734Z,90.50
2019-05-11T07:32:44.713Z,90.30
2019-05-11T07:35:15.428Z,90.50
2019-05-11T07:37:47.896Z,90.50
2019-05-11T07:40:18.755Z,90.40
2019-05-11T07:42:48.866Z,90.80
2019-05-11T07:45:18.924Z,90.10
2019-05-11T07:47:48.785Z,90.10
2019-05-11T07:50:18.754Z,89.90
2019-05-11T07:52:48.546Z,90.20
2019-05-11T07:55:19.208Z,90.40
2019-05-11T07:57:49.173Z,90.00
2019-05-11T08:00:19.550Z,90.00
2019-05-11T08:02:49.410Z,89.90
2019-05-11T08:05:19.391Z,89.80
2019-05-11T08:07:49.240Z,89.90
2019-05-11T08:10:19.542Z,89.90
2019-05-11T08:12:49.524Z,89.50
2019-05-11T08:15:19.662Z,89.60
2019-05-11T08:17:49.308Z,88.70
2019-05-11T08:20:19.188Z,89.10
2019-05-11T08:22:49.141Z,89.10
2019-05-11T08:25:19.100Z,89.00
2019-05-11T08:27:48.944Z,88.70
2019-05-11T08:30:19.386Z,89.50
2019-05-11T08:32:49.539Z,89.20
2019-05-11T08:35:19.672Z,89.20
2019-05-11T08:37:49.449Z,88.90
2019-05-11T08:40:19.864Z,88.00
2019-05-11T08:42:49.746Z,87.30
2019-05-11T08:45:24.250Z,86.80
2019-05-11T08:47:51.136Z,86.30
2019-05-11T08:50:21.043Z,85.70
2019-05-11T08:52:50.587Z,85.60
2019-05-11T08:55:20.456Z,85.50
2019-05-11T08:57:50.021Z,84.30
2019-05-11T09:00:20.211Z,84.10
2019-05-11T09:02:50.960Z,84.10
2019-05-11T09:05:20.932Z,84.00
2019-05-11T09:07:50.550Z,84.00
2019-05-11T09:10:20.171Z,83.10
2019-05-11T09:12:49.868Z,82.90
2019-05-11T09:15:33.452Z,82.60
2019-05-11T09:17:52.697Z,82.50
2019-05-11T09:20:22.564Z,80.90
2019-05-11T09:22:52.484Z,80.50
2019-05-11T09:25:22.428Z,80.90
2019-05-11T09:27:52.317Z,80.90
2019-05-11T09:30:22.320Z,80.00
2019-05-11T09:32:52.144Z,78.70
2019-05-11T09:35:24.217Z,78.80
2019-05-11T09:37:54.192Z,78.80
2019-05-11T09:40:23.980Z,77.20
2019-05-11T09:42:53.943Z,77.20
2019-05-11T09:45:23.861Z,77.00
2019-05-11T09:47:53.681Z,76.80
2019-05-11T09:50:23.659Z,74.20
2019-05-11T09:52:53.542Z,73.80
2019-05-11T09:55:23.569Z,75.70
2019-05-11T09:57:54.198Z,76.10
2019-05-11T10:00:25.469Z,76.50
2019-05-11T10:02:57.553Z,76.10
2019-05-11T10:05:28.612Z,75.80
2019-05-11T10:07:59.024Z,75.20
2019-05-11T10:10:29.120Z,74.60
2019-05-11T10:12:59.235Z,74.20
2019-05-11T10:15:30.199Z,72.70
2019-05-11T10:18:00.022Z,73.10
2019-05-11T10:20:29.949Z,72.10
2019-05-11T10:22:59.857Z,72.30
2019-05-11T10:25:29.782Z,71.90
2019-05-11T10:27:59.689Z,72.10
2019-05-11T10:30:29.607Z,72.20
2019-05-11T10:32:59.509Z,72.00
2019-05-11T10:35:29.433Z,72.40
2019-05-11T10:37:59.384Z,72.10
2019-05-11T10:40:29.276Z,70.80
2019-05-11T10:42:59.217Z,69.90
2019-05-11T10:45:29.097Z,70.60
2019-05-11T10:48:01.090Z,70.30
2019-05-11T10:50:30.562Z,70.10
2019-05-11T10:53:00.524Z,69.80
2019-05-11T10:55:30.396Z,70.60
2019-05-11T10:58:00.293Z,71.60
2019-05-11T11:00:29.904Z,70.80
2019-05-11T11:02:59.733Z,72.00
2019-05-11T11:05:29.649Z,72.10
2019-05-11T11:07:59.188Z,71.70
2019-05-11T11:10:29.122Z,71.80
2019-05-11T11:12:59.137Z,71.30
2019-05-11T11:15:29.029Z,70.50
2019-05-11T11:17:58.900Z,69.50
2019-05-11T11:20:28.774Z,68.20
2019-05-11T11:22:58.643Z,68.90
2019-05-11T11:25:28.625Z,68.60
2019-05-11T11:27:58.636Z,68.30
2019-05-11T11:30:28.736Z,69.70
2019-05-11T11:32:58.974Z,70.30
2019-05-11T11:35:28.716Z,70.60
2019-05-11T11:37:58.654Z,70.40
2019-05-11T11:40:29.770Z,70.20
2019-05-11T11:42:59.693Z,70.00
2019-05-11T11:45:29.610Z,68.90
2019-05-11T11:47:59.517Z,68.10
2019-05-11T11:50:29.436Z,67.60
2019-05-11T11:52:59.357Z,65.40
2019-05-11T11:55:29.254Z,65.10
2019-05-11T11:57:59.180Z,66.80
2019-05-11T12:00:29.151Z,69.50
2019-05-11T12:02:59.004Z,71.20
2019-05-11T12:05:28.905Z,72.30
2019-05-11T12:07:58.848Z,72.10
2019-05-11T12:10:28.897Z,72.70
2019-05-11T12:12:58.627Z,72.00
2019-05-11T12:15:28.434Z,71.40
2019-05-11T12:17:58.777Z,72.20
2019-05-11T12:20:28.895Z,71.40
2019-05-11T12:22:58.788Z,69.40
2019-05-11T12:25:28.650Z,68.90
2019-05-11T12:27:58.577Z,67.60
2019-05-11T12:30:28.643Z,68.50
2019-05-11T12:32:58.402Z,68.00
2019-05-11T12:35:28.587Z,68.10
2019-05-11T12:37:58.774Z,68.80
2019-05-11T12:40:28.539Z,68.30
2019-05-11T12:42:59.186Z,69.90
2019-05-11T12:45:29.590Z,70.20
2019-05-11T12:47:59.518Z,69.40
2019-05-11T12:50:29.417Z,70.30
2019-05-11T12:52:59.009Z,70.40
2019-05-11T12:55:28.890Z,70.10
2019-05-11T12:57:58.854Z,71.20
2019-05-11T13:00:31.283Z,72.50
2019-05-11T13:03:00.237Z,74.10
2019-05-11T13:05:30.130Z,76.20
2019-05-11T13:07:59.664Z,76.30
2019-05-11T13:10:29.615Z,76.80
2019-05-11T13:13:02.558Z,78.00
2019-05-11T13:15:31.257Z,77.20
2019-05-11T13:18:00.947Z,77.20
2019-05-11T13:20:30.862Z,77.10
2019-05-11T13:23:00.381Z,76.60
2019-05-11T13:25:29.934Z,76.40
2019-05-11T13:27:59.765Z,76.80
2019-05-11T13:30:29.393Z,77.00
2019-05-11T13:32:59.289Z,77.00
2019-05-11T13:35:29.220Z,76.80
2019-05-11T13:37:59.141Z,77.20
2019-05-11T13:40:29.870Z,77.20
2019-05-11T13:42:59.762Z,76.80
2019-05-11T13:45:29.715Z,76.60
2019-05-11T13:47:59.604Z,76.90
2019-05-11T13:50:29.827Z,76.40
2019-05-11T13:52:59.837Z,75.70
2019-05-11T13:55:29.788Z,76.50
2019-05-11T14:00:34.452Z,77.20
2019-05-11T14:03:07.685Z,75.10
2019-05-11T14:05:37.831Z,75.50
2019-05-11T14:08:08.327Z,74.90
2019-05-11T14:10:38.531Z,74.40
2019-05-11T14:13:08.858Z,74.30
2019-05-11T14:15:38.908Z,73.80
2019-05-11T14:18:11.905Z,74.10
2019-05-11T14:20:40.471Z,74.30
2019-05-11T14:23:10.285Z,73.70
2019-05-11T14:25:40.206Z,73.70
2019-05-11T14:28:10.109Z,72.80
2019-05-11T14:30:40.041Z,72.40
2019-05-11T14:33:09.941Z,73.20
2019-05-11T14:35:39.873Z,73.10
2019-05-11T14:38:09.769Z,72.70
2019-05-11T14:40:39.689Z,72.90
2019-05-11T14:43:09.588Z,72.50
2019-05-11T14:45:39.124Z,71.80
2019-05-11T14:48:23.073Z,71.30
2019-05-11T14:50:40.576Z,71.10
2019-05-11T14:53:10.105Z,71.30
2019-05-11T14:55:39.992Z,71.60
2019-05-11T14:58:09.525Z,71.90
2019-05-11T15:00:39.501Z,72.90
2019-05-11T15:03:09.317Z,73.50
2019-05-11T15:05:41.370Z,73.90
2019-05-11T15:08:10.389Z,74.30
2019-05-11T15:10:39.911Z,74.30
2019-05-11T15:13:09.829Z,74.70
2019-05-11T15:15:39.717Z,73.90
2019-05-11T15:18:09.263Z,74.20
2019-05-11T15:20:39.217Z,74.30
2019-05-11T15:23:09.067Z,74.70
2019-05-11T15:25:38.969Z,75.80
2019-05-11T15:28:08.860Z,75.70
2019-05-11T15:30:38.884Z,75.70
2019-05-11T15:33:08.857Z,75.60
2019-05-11T15:35:38.721Z,75.30
2019-05-11T15:38:08.894Z,76.50
2019-05-11T15:40:38.969Z,77.10
2019-05-11T15:43:08.926Z,77.30
2019-05-11T15:45:38.796Z,77.20
2019-05-11T15:48:08.817Z,75.90
2019-05-11T15:50:40.167Z,75.80
2019-05-11T15:53:10.200Z,76.50
2019-05-11T15:55:42.423Z,76.30
2019-05-11T15:58:11.660Z,74.50
2019-05-11T16:00:41.252Z,74.00
2019-05-11T16:03:12.970Z,72.30
2019-05-11T16:05:42.946Z,71.00
2019-05-11T16:08:12.747Z,70.60
2019-05-11T16:10:42.556Z,70.80
2019-05-11T16:13:12.373Z,70.20
2019-05-11T16:15:42.333Z,70.90
2019-05-11T16:18:12.217Z,70.20
2019-05-11T16:20:42.408Z,69.40
2019-05-11T16:23:12.040Z,69.80
2019-05-11T16:25:42.018Z,70.10
2019-05-11T16:28:11.905Z,70.20
2019-05-11T16:30:41.848Z,70.00
2019-05-11T16:33:11.705Z,70.50
2019-05-11T16:35:41.573Z,70.00
2019-05-11T16:38:11.149Z,69.60
2019-05-11T16:40:40.998Z,70.10
2019-05-11T16:43:10.937Z,70.10
2019-05-11T16:45:40.838Z,70.00
2019-05-11T16:48:10.386Z,69.80
2019-05-11T16:50:40.314Z,70.30
2019-05-11T16:53:10.233Z,70.10
2019-05-11T16:55:40.081Z,70.80
2019-05-11T16:58:10.809Z,70.10
2019-05-11T17:00:42.370Z,69.20
2019-05-11T17:03:12.291Z,68.70
2019-05-11T17:05:41.853Z,68.90
2019-05-11T17:08:11.725Z,69.10
2019-05-11T17:10:42.992Z,70.70
2019-05-11T17:13:12.769Z,69.10
2019-05-11T17:15:42.319Z,68.80
2019-05-11T17:18:12.155Z,68.50
2019-05-11T17:20:41.730Z,69.00
2019-05-11T17:23:11.629Z,68.60
2019-05-11T17:25:41.541Z,69.00
2019-05-11T17:28:11.117Z,68.50
2019-05-11T17:30:40.941Z,68.10
2019-05-11T17:33:10.530Z,69.60
2019-05-11T17:35:40.477Z,69.10
2019-05-11T17:38:10.375Z,68.20
2019-05-11T17:40:40.312Z,68.40
2019-05-11T17:43:10.206Z,67.40
2019-05-11T17:45:40.148Z,68.50
2019-05-11T17:48:10.100Z,67.70
2019-05-11T17:50:39.973Z,67.90
2019-05-11T17:53:09.865Z,68.00
2019-05-11T17:55:39.789Z,67.70
2019-05-11T17:58:09.685Z,68.10
2019-05-11T18:00:39.603Z,68.20
2019-05-11T18:03:11.343Z,68.70
2019-05-11T18:05:41.275Z,68.30
2019-05-11T18:08:11.037Z,68.30
2019-05-11T18:10:40.919Z,68.50
2019-05-11T18:13:10.801Z,68.00
2019-05-11T18:15:40.752Z,68.70
2019-05-11T18:18:10.648Z,68.50
2019-05-11T18:20:40.561Z,68.70
2019-05-11T18:23:10.474Z,68.70
2019-05-11T18:25:40.414Z,69.10
2019-05-11T18:28:10.363Z,69.00
2019-05-11T18:30:40.250Z,68.90
2019-05-11T18:33:10.160Z,70.50
2019-05-11T18:35:40.053Z,69.70
2019-05-11T18:38:09.960Z,68.90
2019-05-11T18:40:39.873Z,69.50
2019-05-11T18:43:09.771Z,70.00
2019-05-11T18:45:39.309Z,69.90
2019-05-11T18:48:09.206Z,69.80
2019-05-11T18:50:38.774Z,70.70
2019-05-11T18:53:09.400Z,70.30
2019-05-11T18:55:39.367Z,70.60
2019-05-11T18:58:09.285Z,70.40
2019-05-11T19:00:38.804Z,71.10
2019-05-11T19:03:08.946Z,70.40
2019-05-11T19:05:38.776Z,71.20
2019-05-11T19:08:08.597Z,71.00
2019-05-11T19:10:38.538Z,70.70
2019-05-11T19:13:08.357Z,70.80
2019-05-11T19:15:38.805Z,70.60
2019-05-11T19:18:08.616Z,70.90
2019-05-11T19:20:45.646Z,71.30
2019-05-11T19:23:10.067Z,70.80
2019-05-11T19:25:39.605Z,70.80
2019-05-11T19:28:09.573Z,71.90
2019-05-11T19:30:39.486Z,71.40
2019-05-11T19:33:11.248Z,71.40
2019-05-11T19:35:41.053Z,72.10
2019-05-11T19:38:10.904Z,72.50
2019-05-11T19:40:40.793Z,72.50
2019-05-11T19:43:11.577Z,72.10
2019-05-11T19:45:42.417Z,72.20
2019-05-11T19:48:11.825Z,72.40
2019-05-11T19:50:41.699Z,73.80
2019-05-11T19:53:11.650Z,72.30
2019-05-11T19:55:41.554Z,72.70
2019-05-11T19:58:11.498Z,73.10
2019-05-11T20:00:41.344Z,73.20
2019-05-11T20:03:11.384Z,72.60
2019-05-11T20:05:41.193Z,72.10
2019-05-11T20:08:11.098Z,72.50
2019-05-11T20:10:41.026Z,73.30
2019-05-11T20:13:10.927Z,72.50
2019-05-11T20:15:40.814Z,72.40
2019-05-11T20:18:10.764Z,72.50
2019-05-11T20:20:40.633Z,73.20
2019-05-11T20:23:10.566Z,72.90
2019-05-11T20:25:40.461Z,73.40
2019-05-11T20:28:10.392Z,72.50
2019-05-11T20:30:40.440Z,73.30
2019-05-11T20:33:10.237Z,73.40
2019-05-11T20:35:40.119Z,72.90
2019-05-11T20:38:09.661Z,73.90
2019-05-11T20:40:39.541Z,72.60
2019-05-11T20:43:09.478Z,73.20
2019-05-11T20:45:39.380Z,73.30
2019-05-11T20:48:09.285Z,73.40
2019-05-11T20:50:38.817Z,74.30
2019-05-11T20:53:08.737Z,73.40
2019-05-11T20:55:38.640Z,73.00
2019-05-11T20:58:08.636Z,74.80
2019-05-11T21:00:38.501Z,74.50
2019-05-11T21:03:08.372Z,74.90
2019-05-11T21:05:37.985Z,75.10
2019-05-11T21:08:08.475Z,74.60
2019-05-11T21:10:38.739Z,75.00
2019-05-11T21:13:08.752Z,74.50
2019-05-11T21:15:38.765Z,74.90
2019-05-11T21:18:09.521Z,74.40
2019-05-11T21:20:39.057Z,75.40
2019-05-11T21:23:08.917Z,75.60
2019-05-11T21:25:38.459Z,74.70
2019-05-11T21:28:08.675Z,75.20
2019-05-11T21:30:58.517Z,75.00
2019-05-11T21:33:28.399Z,75.60
2019-05-11T21:36:00.794Z,75.30
2019-05-11T21:38:31.825Z,75.10
2019-05-11T21:41:02.213Z,75.80
2019-05-11T21:43:32.100Z,75.40
2019-05-11T21:46:02.065Z,76.70
2019-05-11T21:48:31.928Z,75.70
2019-05-11T21:51:01.862Z,76.10
2019-05-11T21:53:31.747Z,76.80
2019-05-11T21:56:01.678Z,75.80
2019-05-11T21:58:31.620Z,76.80
2019-05-11T22:01:01.786Z,75.80
2019-05-11T22:03:31.404Z,76.50
2019-05-11T22:06:01.352Z,76.20
2019-05-11T22:08:31.305Z,75.80
2019-05-11T22:11:01.208Z,77.30
2019-05-11T22:13:31.062Z,77.00
2019-05-11T22:16:01.006Z,75.60
2019-05-11T22:18:31.545Z,77.40
2019-05-11T22:21:01.286Z,78.10
2019-05-11T22:23:31.137Z,77.70
2019-05-11T22:26:01.058Z,78.00
2019-05-11T22:28:30.987Z,77.20
2019-05-11T22:31:00.868Z,77.90
2019-05-11T22:33:30.802Z,78.30
2019-05-11T22:36:01.547Z,77.80
2019-05-11T22:38:31.461Z,77.90
2019-05-11T22:41:01.351Z,78.00
2019-05-11T22:43:30.943Z,77.20
2019-05-11T22:46:00.798Z,77.20
2019-05-11T22:48:30.685Z,77.60
2019-05-11T22:51:00.209Z,78.40
2019-05-11T22:53:43.937Z,77.50
2019-05-11T22:56:01.658Z,78.20
2019-05-11T22:58:31.192Z,78.50
2019-05-11T23:01:01.096Z,77.90
2019-05-11T23:03:30.997Z,78.50
2019-05-11T23:06:00.521Z,78.80
2019-05-11T23:08:30.421Z,77.30
2019-05-11T23:10:59.942Z,78.30
2019-05-11T23:13:29.846Z,78.30
2019-05-11T23:15:59.369Z,77.90
2019-05-11T23:18:29.289Z,77.60
2019-05-11T23:20:59.152Z,77.80
2019-05-11T23:23:29.163Z,79.10
2019-05-11T23:25:59.090Z,79.20
2019-05-11T23:28:29.043Z,78.90
2019-05-11T23:30:58.914Z,78.50
2019-05-11T23:33:28.445Z,79.40
2019-05-11T23:35:58.872Z,79.40
2019-05-11T23:38:28.670Z,78.80
2019-05-11T23:40:58.891Z,79.30
2019-05-11T23:43:30.096Z,78.70
2019-05-11T23:46:00.042Z,80.20
2019-05-11T23:48:29.983Z,79.10
2019-05-11T23:50:59.877Z,78.50
2019-05-11T23:53:30.220Z,78.80
2019-05-11T23:56:00.105Z,79.90
2019-05-11T23:58:30.017Z,79.30
